Time;durP1;ratioP1;P1;durP2;ratioP2;P2;SDS_P1;SDS_P2;PMS_P1;PMS_P2;Temp;Humidity;BMP_temperature;BMP_pressure;BME280_temperature;BME280_humidity;BME280_pressure;Samples;Min_cycle;Max_cycle;Signal;HPM_P1;HPM_P2
2021/07/22 00:00:51;;;;;;;17.85;10.82;;;19.50;76.00;;;;;;6186143;23;20021;-74
2021/07/22 00:03:18;;;;;;;13.02;10.15;;;19.50;76.00;;;;;;6186180;23;20021;-74
2021/07/22 00:05:46;;;;;;;16.92;10.27;;;19.50;76.10;;;;;;6186102;23;20544;-74
2021/07/22 00:08:13;;;;;;;14.82;11.48;;;19.40;76.20;;;;;;6186620;23;20018;-74
2021/07/22 00:10:41;;;;;;;16.98;10.68;;;19.40;76.20;;;;;;6186074;23;20025;-74
2021/07/22 00:13:09;;;;;;;16.95;11.45;;;19.40;76.20;;;;;;6184881;23;20027;-75
2021/07/22 00:15:35;;;;;;;14.82;11.60;;;19.40;76.20;;;;;;6185993;23;20031;-74
2021/07/22 00:18:04;;;;;;;15.13;11.02;;;19.30;76.10;;;;;;6184867;23;20031;-74
2021/07/22 00:20:31;;;;;;;15.85;10.68;;;19.30;75.70;;;;;;6186515;23;20028;-75
2021/07/22 00:22:58;;;;;;;18.73;11.15;;;19.30;75.70;;;;;;6186393;23;20017;-74
2021/07/22 00:25:25;;;;;;;16.42;10.90;;;19.30;75.70;;;;;;6184878;23;20027;-74
2021/07/22 00:27:51;;;;;;;16.35;10.90;;;19.30;75.80;;;;;;6184727;23;20024;-74
2021/07/22 00:30:18;;;;;;;14.05;10.52;;;19.20;75.80;;;;;;6186310;23;20021;-74
2021/07/22 00:32:45;;;;;;;20.30;10.65;;;19.10;76.00;;;;;;6185767;23;20024;-74
2021/07/22 00:35:12;;;;;;;14.30;10.10;;;19.10;76.20;;;;;;6186074;23;20025;-74
2021/07/22 00:37:39;;;;;;;17.98;10.73;;;19.10;76.30;;;;;;6184360;23;20025;-76
2021/07/22 00:40:07;;;;;;;16.00;10.88;;;19.10;76.30;;;;;;6186057;23;20024;-74
2021/07/22 00:43:01;;;;;;;18.02;11.27;;;19.10;76.40;;;;;;6185782;23;20017;-74
2021/07/22 00:45:30;;;;;;;16.40;11.70;;;19.00;76.40;;;;;;6185776;23;20021;-74
2021/07/22 00:47:59;;;;;;;14.88;10.75;;;18.90;76.40;;;;;;6184286;23;20048;-74
2021/07/22 00:50:26;;;;;;;16.67;11.52;;;18.90;76.40;;;;;;6185726;23;20388;-74
2021/07/22 00:52:53;;;;;;;14.73;10.80;;;18.90;76.40;;;;;;6186005;23;20025;-74
2021/07/22 00:55:24;;;;;;;18.58;11.73;;;18.90;76.40;;;;;;6185688;23;20464;-74
2021/07/22 00:57:52;;;;;;;14.68;11.13;;;18.90;76.50;;;;;;6183974;23;20031;-74
2021/07/22 01:00:19;;;;;;;15.52;12.00;;;18.80;76.40;;;;;;6184482;23;20028;-74
2021/07/22 01:02:46;;;;;;;18.23;12.32;;;18.80;76.30;;;;;;6185447;23;20023;-74
2021/07/22 01:05:14;;;;;;;14.88;11.90;;;18.80;76.00;;;;;;6186354;23;20112;-74
2021/07/22 01:07:41;;;;;;;14.90;11.63;;;18.80;76.10;;;;;;6185869;23;20021;-74
2021/07/22 01:10:09;;;;;;;16.77;12.68;;;18.80;76.10;;;;;;6185660;23;20017;-74
2021/07/22 01:12:36;;;;;;;18.80;12.75;;;18.70;76.10;;;;;;6185455;23;20540;-75
2021/07/22 01:15:03;;;;;;;15.68;12.15;;;18.70;76.20;;;;;;6185817;23;20022;-73
2021/07/22 01:17:44;;;;;;;18.50;12.77;;;18.70;76.30;;;;;;6185438;23;20024;-75
2021/07/22 01:20:18;;;;;;;16.58;12.55;;;18.70;76.50;;;;;;6185344;23;20361;-74
2021/07/22 01:22:46;;;;;;;17.17;12.05;;;18.60;76.50;;;;;;6185264;23;20059;-74
2021/07/22 01:25:15;;;;;;;19.65;12.05;;;18.60;76.50;;;;;;6185323;23;20021;-74
2021/07/22 01:27:42;;;;;;;16.73;11.70;;;18.60;76.40;;;;;;6184094;23;20016;-75
2021/07/22 01:30:10;;;;;;;19.58;11.38;;;18.60;76.50;;;;;;6184195;23;20017;-74
2021/07/22 01:32:37;;;;;;;16.13;12.20;;;18.50;76.60;;;;;;6183850;23;20540;-74
2021/07/22 01:35:05;;;;;;;16.42;12.32;;;18.40;76.60;;;;;;6185686;23;20017;-74
2021/07/22 01:37:32;;;;;;;17.77;11.07;;;18.40;76.50;;;;;;6183988;23;20544;-73
2021/07/22 01:39:59;;;;;;;15.77;11.68;;;18.40;76.50;;;;;;6185626;23;20021;-74
2021/07/22 01:42:26;;;;;;;20.83;12.45;;;18.40;76.60;;;;;;6183900;23;20017;-73
2021/07/22 01:44:53;;;;;;;18.10;11.80;;;18.40;76.60;;;;;;6185250;23;20032;-74
2021/07/22 01:47:20;;;;;;;19.52;12.05;;;18.40;76.70;;;;;;6185330;23;20492;-73
2021/07/22 01:49:47;;;;;;;16.85;12.20;;;18.40;76.70;;;;;;6185643;23;20334;-74
2021/07/22 01:52:14;;;;;;;16.42;12.30;;;18.40;76.60;;;;;;6185604;23;20021;-74
2021/07/22 01:54:41;;;;;;;20.33;13.68;;;18.30;76.70;;;;;;6185479;23;20461;-74
2021/07/22 01:57:08;;;;;;;20.15;13.27;;;18.30;76.70;;;;;;6184098;23;20021;-74
2021/07/22 01:59:35;;;;;;;16.92;12.75;;;18.30;76.60;;;;;;6185198;23;20365;-74
2021/07/22 02:02:04;;;;;;;18.17;12.40;;;18.20;76.60;;;;;;6185530;23;20028;-75
2021/07/22 02:04:32;;;;;;;16.80;12.68;;;18.20;76.70;;;;;;6184395;23;20382;-74
2021/07/22 02:06:59;;;;;;;19.55;13.32;;;18.20;76.80;;;;;;6185505;23;20017;-74
2021/07/22 02:09:26;;;;;;;20.73;13.48;;;18.10;76.80;;;;;;6184763;23;20017;-73
2021/07/22 02:11:56;;;;;;;18.73;12.43;;;18.10;76.90;;;;;;6185585;23;20021;-74
2021/07/22 02:14:24;;;;;;;17.52;12.63;;;18.10;76.70;;;;;;6185372;23;20484;-74
2021/07/22 02:16:51;;;;;;;18.45;13.10;;;18.00;76.80;;;;;;6185035;23;20025;-73
2021/07/22 02:19:18;;;;;;;19.90;13.80;;;18.00;76.80;;;;;;6185184;23;20025;-74
2021/07/22 02:21:46;;;;;;;18.77;13.15;;;18.00;76.40;;;;;;6185334;23;20029;-74
2021/07/22 02:24:14;;;;;;;24.42;14.30;;;18.00;76.40;;;;;;6184861;23;20040;-74
2021/07/22 02:26:42;;;;;;;19.35;13.38;;;17.90;76.60;;;;;;6185516;23;20040;-73
2021/07/22 02:29:09;;;;;;;20.20;14.05;;;17.90;76.80;;;;;;6185452;23;20017;-75
2021/07/22 02:31:36;;;;;;;22.40;14.15;;;17.90;77.00;;;;;;6183977;23;20050;-73
2021/07/22 02:34:04;;;;;;;20.67;13.20;;;17.90;77.10;;;;;;6184909;23;20078;-74
2021/07/22 02:36:32;;;;;;;20.33;14.68;;;17.90;77.10;;;;;;6183459;23;20025;-74
2021/07/22 02:39:00;;;;;;;20.77;14.40;;;17.90;77.00;;;;;;6186314;23;20025;-73
2021/07/22 02:41:29;;;;;;;20.60;14.38;;;17.80;77.00;;;;;;6187511;23;20021;-74
2021/07/22 02:43:57;;;;;;;17.70;13.98;;;17.80;77.00;;;;;;6186958;23;20020;-73
2021/07/22 02:46:24;;;;;;;18.63;13.40;;;17.80;77.00;;;;;;6187303;23;20052;-74
2021/07/22 02:48:56;;;;;;;18.52;12.85;;;17.80;77.00;;;;;;6187472;23;20072;-74
2021/07/22 02:51:23;;;;;;;19.05;13.48;;;17.80;77.10;;;;;;6187280;23;20468;-74
2021/07/22 02:53:50;;;;;;;20.17;14.52;;;17.80;77.10;;;;;;6186681;23;20021;-73
2021/07/22 02:56:18;;;;;;;23.98;14.27;;;17.70;77.10;;;;;;6185857;23;20028;-73
2021/07/22 02:58:45;;;;;;;21.23;14.40;;;17.70;77.20;;;;;;6187250;23;20021;-74
2021/07/22 03:01:12;;;;;;;19.88;13.93;;;17.60;77.30;;;;;;6187172;23;20043;-74
2021/07/22 03:03:39;;;;;;;25.70;13.50;;;17.60;77.50;;;;;;6186768;23;20045;-74
2021/07/22 03:06:06;;;;;;;21.15;13.38;;;17.50;77.60;;;;;;6186950;23;20024;-73
2021/07/22 03:08:35;;;;;;;16.15;12.63;;;17.50;77.60;;;;;;6186820;23;20028;-74
2021/07/22 03:11:02;;;;;;;21.50;12.90;;;17.50;77.60;;;;;;6186695;23;20031;-74
2021/07/22 03:13:29;;;;;;;19.73;12.25;;;17.50;77.50;;;;;;6187188;23;20021;-74
2021/07/22 03:15:56;;;;;;;19.70;12.45;;;17.40;77.30;;;;;;6187058;23;20036;-74
2021/07/22 03:18:23;;;;;;;19.85;12.88;;;17.50;77.30;;;;;;6186676;23;20514;-73
2021/07/22 03:20:50;;;;;;;19.58;13.77;;;17.50;77.20;;;;;;6186332;23;20027;-74
2021/07/22 03:23:17;;;;;;;20.00;13.40;;;17.40;77.20;;;;;;6186992;23;20023;-74
2021/07/22 03:25:45;;;;;;;19.33;13.57;;;17.40;77.20;;;;;;6185147;23;20484;-73
2021/07/22 03:28:12;;;;;;;20.48;14.85;;;17.40;77.30;;;;;;6186624;23;20017;-74
2021/07/22 03:30:41;;;;;;;22.35;15.65;;;17.40;77.30;;;;;;6186623;23;20027;-73
2021/07/22 03:33:08;;;;;;;28.33;17.83;;;17.40;77.30;;;;;;6186539;23;20017;-74
2021/07/22 03:35:35;;;;;;;27.48;16.88;;;17.40;77.40;;;;;;6186507;23;20040;-73
2021/07/22 03:38:02;;;;;;;26.52;16.23;;;17.30;77.50;;;;;;6213799;23;20039;-73
2021/07/22 03:40:29;;;;;;;21.00;15.60;;;17.30;77.70;;;;;;6190565;23;20017;-74
2021/07/22 03:42:56;;;;;;;22.73;15.77;;;17.30;77.90;;;;;;6216740;23;20021;-74
2021/07/22 03:45:23;;;;;;;26.45;16.35;;;17.30;78.00;;;;;;6216805;23;20016;-75
2021/07/22 03:47:50;;;;;;;22.98;15.45;;;17.20;77.90;;;;;;6216298;23;20498;-74
2021/07/22 03:50:17;;;;;;;29.77;16.83;;;17.20;77.80;;;;;;6216123;23;20017;-74
2021/07/22 03:52:44;;;;;;;26.10;14.63;;;17.10;77.80;;;;;;6216309;23;20032;-74
2021/07/22 03:55:12;;;;;;;21.02;15.85;;;17.20;77.80;;;;;;6216319;23;20495;-73
2021/07/22 03:57:41;;;;;;;25.10;14.93;;;17.10;77.90;;;;;;6216701;23;20360;-74
2021/07/22 04:00:10;;;;;;;22.27;15.55;;;17.10;78.00;;;;;;6216280;23;20025;-73
2021/07/22 04:02:41;;;;;;;22.88;15.20;;;17.10;78.00;;;;;;6216603;23;20021;-73
2021/07/22 04:05:09;;;;;;;23.98;16.90;;;17.10;78.10;;;;;;6189929;23;20023;-73
2021/07/22 04:07:36;;;;;;;26.58;17.30;;;17.00;78.20;;;;;;6216583;23;20021;-75
2021/07/22 04:10:03;;;;;;;23.67;16.17;;;17.00;78.30;;;;;;6216612;23;20016;-74
2021/07/22 04:12:30;;;;;;;27.02;17.13;;;17.00;78.30;;;;;;6216125;23;20020;-73
2021/07/22 04:14:57;;;;;;;23.02;17.20;;;17.00;78.30;;;;;;6216381;23;20436;-73
2021/07/22 04:17:29;;;;;;;33.70;18.70;;;16.90;78.30;;;;;;6216179;23;20063;-74
2021/07/22 04:19:56;;;;;;;22.48;15.50;;;16.90;78.30;;;;;;6190001;23;20027;-73
2021/07/22 04:22:23;;;;;;;28.55;16.25;;;16.90;78.20;;;;;;6216348;23;20067;-73
2021/07/22 04:24:50;;;;;;;23.27;15.50;;;16.90;78.20;;;;;;6190041;23;20017;-73
2021/07/22 04:27:19;;;;;;;19.27;14.57;;;16.90;78.10;;;;;;6190170;23;20039;-73
2021/07/22 04:29:47;;;;;;;23.08;15.40;;;16.90;78.10;;;;;;6215917;23;20494;-73
2021/07/22 04:32:14;;;;;;;25.55;15.38;;;16.90;78.10;;;;;;6216390;23;20115;-74
2021/07/22 04:34:41;;;;;;;25.77;14.98;;;16.90;78.20;;;;;;6215659;23;20024;-73
2021/07/22 04:37:08;;;;;;;26.73;15.75;;;16.90;78.30;;;;;;6215935;23;20028;-73
2021/07/22 04:39:35;;;;;;;21.90;14.88;;;16.90;78.30;;;;;;6216285;23;20021;-73
2021/07/22 04:42:02;;;;;;;36.55;15.20;;;16.90;78.30;;;;;;6216087;23;20023;-74
2021/07/22 04:44:30;;;;;;;35.22;16.08;;;16.90;78.40;;;;;;6189981;23;20070;-73
2021/07/22 04:46:58;;;;;;;22.05;15.40;;;16.90;78.60;;;;;;6215603;23;20024;-73
2021/07/22 04:49:26;;;;;;;24.35;16.33;;;16.80;78.70;;;;;;6189640;23;20017;-73
2021/07/22 04:51:53;;;;;;;27.58;16.58;;;16.90;78.80;;;;;;6189859;23;20020;-74
2021/07/22 04:54:20;;;;;;;30.52;16.92;;;16.80;78.70;;;;;;6216050;23;20375;-74
2021/07/22 04:56:47;;;;;;;26.50;16.52;;;16.80;78.70;;;;;;6215583;23;20025;-74
2021/07/22 04:59:14;;;;;;;25.65;16.45;;;16.80;78.60;;;;;;6216109;23;20032;-73
2021/07/22 05:01:41;;;;;;;25.25;16.90;;;16.80;78.30;;;;;;6215459;23;20092;-74
2021/07/22 05:04:09;;;;;;;25.85;15.32;;;16.80;78.20;;;;;;6215575;23;20074;-74
2021/07/22 05:06:36;;;;;;;22.60;15.65;;;16.80;78.20;;;;;;6189313;23;20016;-74
2021/07/22 05:09:02;;;;;;;20.20;15.77;;;16.80;78.20;;;;;;6215570;23;20028;-74
2021/07/22 05:11:30;;;;;;;26.15;16.25;;;16.80;78.50;;;;;;6215469;23;20021;-73
2021/07/22 05:13:57;;;;;;;27.13;17.75;;;16.80;78.80;;;;;;6215739;23;20104;-74
2021/07/22 05:16:24;;;;;;;23.25;16.73;;;16.80;79.00;;;;;;6215819;23;20028;-74
2021/07/22 05:18:51;;;;;;;24.50;17.63;;;16.90;79.20;;;;;;6215284;23;20025;-74
2021/07/22 05:21:19;;;;;;;30.70;17.05;;;16.90;79.40;;;;;;6215318;23;20100;-74
2021/07/22 05:23:46;;;;;;;25.52;17.17;;;16.90;79.50;;;;;;6215838;23;20024;-73
2021/07/22 05:26:13;;;;;;;29.55;18.63;;;16.90;79.70;;;;;;6215603;23;20076;-74
2021/07/22 05:28:40;;;;;;;31.98;19.23;;;16.90;79.80;;;;;;6215637;23;20017;-74
2021/07/22 05:31:10;;;;;;;30.02;17.95;;;16.90;79.80;;;;;;6215487;23;20017;-73
2021/07/22 05:33:39;;;;;;;29.40;18.95;;;16.90;79.80;;;;;;6215569;23;20016;-73
2021/07/22 05:36:07;;;;;;;33.20;19.63;;;16.90;79.90;;;;;;6215150;23;20020;-73
2021/07/22 05:38:36;;;;;;;34.45;19.25;;;17.00;80.00;;;;;;6189405;23;20092;-73
2021/07/22 05:41:07;;;;;;;27.77;19.35;;;17.00;80.10;;;;;;6188929;23;20016;-74
2021/07/22 05:43:34;;;;;;;30.08;18.92;;;17.10;80.10;;;;;;6215069;23;20017;-74
2021/07/22 05:46:01;;;;;;;32.08;18.85;;;17.10;79.90;;;;;;6214979;23;20017;-73
2021/07/22 05:48:28;;;;;;;26.98;18.92;;;17.10;79.60;;;;;;6215116;23;20400;-73
2021/07/22 05:51:00;;;;;;;35.67;21.08;;;17.20;79.40;;;;;;6189213;23;20058;-73
2021/07/22 05:53:27;;;;;;;37.65;20.80;;;17.20;79.40;;;;;;6214947;23;20032;-73
2021/07/22 05:55:59;;;;;;;31.27;20.25;;;17.20;79.40;;;;;;6215576;23;20048;-73
2021/07/22 05:58:26;;;;;;;35.83;20.67;;;17.30;79.60;;;;;;6215396;23;20027;-73
2021/07/22 06:00:58;;;;;;;33.85;21.13;;;17.30;79.70;;;;;;6189806;23;20028;-74
2021/07/22 06:03:25;;;;;;;44.95;21.27;;;17.30;79.90;;;;;;6214967;23;20063;-74
2021/07/22 06:05:52;;;;;;;33.13;20.52;;;17.30;80.00;;;;;;6215392;23;20017;-74
2021/07/22 06:08:19;;;;;;;35.53;22.23;;;17.40;80.30;;;;;;6188515;23;20360;-73
2021/07/22 06:10:46;;;;;;;38.72;23.75;;;17.40;80.50;;;;;;6189049;23;20016;-73
2021/07/22 06:13:13;;;;;;;44.67;27.73;;;17.50;80.70;;;;;;6215247;23;20021;-73
2021/07/22 06:15:40;;;;;;;56.63;31.80;;;17.50;80.90;;;;;;6215039;23;20020;-74
2021/07/22 06:18:07;;;;;;;47.22;28.75;;;17.60;81.10;;;;;;6189178;23;20028;-73
2021/07/22 06:20:34;;;;;;;44.22;27.65;;;17.60;81.20;;;;;;6215022;23;20020;-74
2021/07/22 06:23:01;;;;;;;89.15;46.92;;;17.70;81.30;;;;;;6215424;23;20025;-74
2021/07/22 06:25:28;;;;;;;73.63;42.15;;;17.80;81.60;;;;;;6215389;23;20017;-74
2021/07/22 06:27:55;;;;;;;88.72;46.22;;;17.90;81.60;;;;;;6189135;23;20017;-74
2021/07/22 06:30:22;;;;;;;99.13;52.42;;;17.90;81.60;;;;;;6214666;23;20460;-75
2021/07/22 06:32:50;;;;;;;98.82;49.22;;;18.00;81.60;;;;;;6215007;23;20020;-73
2021/07/22 06:35:17;;;;;;;93.93;48.25;;;18.10;81.60;;;;;;6215041;23;20468;-74
2021/07/22 06:37:45;;;;;;;85.40;46.72;;;18.20;81.60;;;;;;6214713;23;20031;-74
2021/07/22 06:40:13;;;;;;;78.65;48.22;;;18.30;81.70;;;;;;6188645;23;20457;-74
2021/07/22 06:42:41;;;;;;;76.22;45.22;;;18.30;81.60;;;;;;6189021;23;20021;-74
2021/07/22 06:45:09;;;;;;;87.00;45.58;;;18.40;81.50;;;;;;6215077;23;20039;-74
2021/07/22 06:47:38;;;;;;;84.88;47.00;;;18.40;81.60;;;;;;6214854;23;20096;-73
2021/07/22 06:50:07;;;;;;;87.53;47.80;;;18.50;81.50;;;;;;6214849;23;20027;-73
2021/07/22 06:52:37;;;;;;;105.97;50.25;;;18.50;81.50;;;;;;6214980;23;20036;-73
2021/07/22 06:55:06;;;;;;;96.72;51.13;;;18.60;81.50;;;;;;6215240;23;20031;-74
2021/07/22 06:57:34;;;;;;;93.38;52.90;;;18.70;81.50;;;;;;6215242;23;20024;-74
2021/07/22 07:00:02;;;;;;;89.03;49.10;;;18.80;81.40;;;;;;6214953;23;20078;-75
2021/07/22 07:02:30;;;;;;;100.93;53.53;;;18.80;81.40;;;;;;6214818;23;20017;-75
2021/07/22 07:04:57;;;;;;;97.97;50.20;;;18.90;81.40;;;;;;6214788;23;20092;-76
2021/07/22 07:07:24;;;;;;;94.72;50.65;;;19.00;81.30;;;;;;6213338;23;20038;-75
2021/07/22 07:09:53;;;;;;;86.70;48.65;;;19.10;81.40;;;;;;6185326;23;20021;-77
2021/07/22 07:12:20;;;;;;;92.75;50.13;;;19.10;81.40;;;;;;6212712;23;20112;-74
2021/07/22 07:14:48;;;;;;;89.15;48.47;;;19.20;81.30;;;;;;6187240;23;20092;-75
2021/07/22 07:17:15;;;;;;;90.25;47.53;;;19.20;81.10;;;;;;6213680;23;20020;-75
2021/07/22 07:19:44;;;;;;;80.32;45.33;;;19.30;81.00;;;;;;6213145;23;20024;-75
2021/07/22 07:22:11;;;;;;;76.50;44.88;;;19.40;80.80;;;;;;6186965;23;20326;-74
2021/07/22 07:24:39;;;;;;;85.57;45.88;;;19.40;80.80;;;;;;6188818;23;20032;-75
2021/07/22 07:27:06;;;;;;;82.85;46.60;;;19.50;80.70;;;;;;6188951;23;20027;-76
2021/07/22 07:29:33;;;;;;;73.95;42.67;;;19.50;80.60;;;;;;6215390;23;20054;-75
2021/07/22 07:32:02;;;;;;;72.93;43.90;;;19.60;80.50;;;;;;6215086;23;20085;-74
2021/07/22 07:34:32;;;;;;;74.78;42.00;;;19.70;80.40;;;;;;6215415;23;20028;-75
2021/07/22 07:36:59;;;;;;;73.50;41.22;;;19.80;80.30;;;;;;6189054;23;20021;-75
2021/07/22 07:39:26;;;;;;;70.25;41.63;;;19.90;80.20;;;;;;6215870;23;20095;-75
2021/07/22 07:41:54;;;;;;;68.47;40.42;;;19.90;80.00;;;;;;6215346;23;20020;-76
2021/07/22 07:44:21;;;;;;;58.97;36.05;;;20.00;79.80;;;;;;6215094;23;20028;-75
2021/07/22 07:46:48;;;;;;;53.53;35.13;;;20.10;79.60;;;;;;6215314;23;20480;-76
2021/07/22 07:49:15;;;;;;;58.17;34.60;;;20.20;79.20;;;;;;6215197;23;20038;-75
2021/07/22 07:51:42;;;;;;;60.53;36.80;;;20.30;78.80;;;;;;6189042;23;20311;-77
2021/07/22 07:54:10;;;;;;;55.20;34.88;;;20.40;78.50;;;;;;6215719;23;20017;-74
2021/07/22 07:56:38;;;;;;;62.35;35.28;;;20.40;78.30;;;;;;6214754;23;20016;-77
2021/07/22 07:59:04;;;;;;;52.30;34.05;;;20.50;78.20;;;;;;6188816;23;20349;-75
2021/07/22 08:01:33;;;;;;;50.30;32.70;;;20.60;78.20;;;;;;6189245;23;20024;-76
2021/07/22 08:04:00;;;;;;;52.63;32.75;;;20.60;78.10;;;;;;6214642;23;20024;-74
2021/07/22 08:06:27;;;;;;;48.78;31.60;;;20.70;77.90;;;;;;6214929;23;20031;-75
2021/07/22 08:08:54;;;;;;;49.00;32.67;;;20.80;77.80;;;;;;6215388;23;20044;-76
2021/07/22 08:11:21;;;;;;;53.08;33.50;;;20.80;77.70;;;;;;6214206;23;20024;-76
2021/07/22 08:13:48;;;;;;;50.80;32.97;;;20.90;77.50;;;;;;6214883;23;20024;-75
2021/07/22 08:16:18;;;;;;;51.97;33.70;;;20.90;77.50;;;;;;6215399;23;20021;-76
2021/07/22 08:18:49;;;;;;;57.95;35.75;;;21.10;76.90;;;;;;6188866;23;20027;-76
2021/07/22 08:21:17;;;;;;;52.90;34.30;;;21.10;76.10;;;;;;6215200;23;20095;-75
2021/07/22 08:23:45;;;;;;;58.03;36.20;;;21.20;75.80;;;;;;6215297;23;20021;-77
2021/07/22 08:26:12;;;;;;;57.72;35.28;;;21.30;75.80;;;;;;6214268;23;20468;-76
2021/07/22 08:28:40;;;;;;;63.05;39.25;;;21.40;75.60;;;;;;6188593;23;20351;-75
2021/07/22 08:31:07;;;;;;;58.90;37.40;;;21.40;75.40;;;;;;6215089;23;20024;-77
2021/07/22 08:33:34;;;;;;;67.95;41.00;;;21.40;74.30;;;;;;6188103;23;20021;-76
2021/07/22 08:36:01;;;;;;;57.53;36.55;;;21.50;74.80;;;;;;6188735;23;20353;-76
2021/07/22 08:38:29;;;;;;;61.33;38.55;;;21.60;74.70;;;;;;6214642;23;20472;-74
2021/07/22 08:40:57;;;;;;;57.53;36.22;;;21.60;75.10;;;;;;6188195;23;20027;-75
2021/07/22 08:43:27;;;;;;;57.88;35.90;;;21.70;75.30;;;;;;6215175;23;20027;-76
2021/07/22 08:45:55;;;;;;;60.70;37.35;;;21.70;75.40;;;;;;6214638;23;20503;-80
2021/07/22 08:48:22;;;;;;;59.60;37.70;;;21.80;74.80;;;;;;6187606;23;20021;-76
2021/07/22 08:50:50;;;;;;;55.22;35.92;;;21.90;74.60;;;;;;6188740;23;20017;-77
2021/07/22 08:53:20;;;;;;;62.50;35.97;;;21.90;74.60;;;;;;6215118;23;20031;-76
2021/07/22 08:55:48;;;;;;;59.67;34.92;;;22.00;74.70;;;;;;6213899;23;20484;-75
2021/07/22 08:58:16;;;;;;;57.08;33.70;;;22.10;74.50;;;;;;6214527;23;20029;-76
2021/07/22 09:00:44;;;;;;;47.40;31.58;;;22.20;73.20;;;;;;6214988;23;20020;-75
2021/07/22 09:03:12;;;;;;;53.17;34.05;;;22.30;73.00;;;;;;6214295;23;20096;-76
2021/07/22 09:05:41;;;;;;;50.63;29.77;;;22.40;72.70;;;;;;6214935;23;20017;-76
2021/07/22 09:08:08;;;;;;;41.85;26.38;;;22.40;72.60;;;;;;6214908;23;20016;-77
2021/07/22 09:10:35;;;;;;;36.75;24.77;;;22.40;71.70;;;;;;6186976;23;20020;-76
2021/07/22 09:13:03;;;;;;;32.30;22.15;;;22.50;70.30;;;;;;6214525;23;20048;-76
2021/07/22 09:15:33;;;;;;;30.05;18.25;;;22.60;69.80;;;;;;6188519;23;20078;-78
2021/07/22 09:18:30;;;;;;;18.35;11.68;;;22.70;69.20;;;;;;6214495;23;20021;-76
2021/07/22 09:21:16;;;;;;;16.98;11.95;;;22.80;68.40;;;;;;6187926;23;20368;-76
2021/07/22 09:24:04;;;;;;;22.50;11.88;;;22.80;67.60;;;;;;6213603;23;20016;-75
2021/07/22 09:26:33;;;;;;;21.67;10.75;;;22.90;68.20;;;;;;6214394;23;20017;-78
2021/07/22 09:29:11;;;;;;;23.27;12.05;;;22.90;68.30;;;;;;6214465;23;20016;-76
2021/07/22 09:31:39;;;;;;;19.98;12.20;;;23.00;68.00;;;;;;6187910;23;20044;-76
2021/07/22 09:34:25;;;;;;;24.33;13.88;;;23.00;68.30;;;;;;6214469;23;20025;-76
2021/07/22 09:36:52;;;;;;;20.92;13.77;;;23.10;68.10;;;;;;6214121;23;20024;-77
2021/07/22 09:39:28;;;;;;;20.83;13.80;;;23.10;68.10;;;;;;6213604;23;20021;-75
2021/07/22 09:41:58;;;;;;;21.50;13.73;;;23.20;66.70;;;;;;6214440;23;20020;-77
2021/07/22 09:44:39;;;;;;;20.67;12.43;;;23.20;67.30;;;;;;6214133;23;20020;-76
2021/07/22 09:47:08;;;;;;;17.77;11.85;;;23.30;67.80;;;;;;6212991;23;20017;-77
2021/07/22 09:49:41;;;;;;;21.65;13.52;;;23.30;66.40;;;;;;6187683;23;20017;-76
2021/07/22 09:52:28;;;;;;;18.98;12.05;;;23.30;67.20;;;;;;6214054;23;20017;-76
2021/07/22 09:54:55;;;;;;;21.38;12.82;;;23.40;66.40;;;;;;6213810;23;20039;-78
2021/07/22 09:57:22;;;;;;;28.70;12.57;;;23.40;66.10;;;;;;6214197;23;20055;-76
2021/07/22 09:59:51;;;;;;;17.33;11.85;;;23.40;67.70;;;;;;6214223;23;20027;-77
2021/07/22 10:02:25;;;;;;;16.77;10.07;;;23.40;66.90;;;;;;6213304;23;20025;-76
2021/07/22 10:04:59;;;;;;;15.52;10.43;;;23.50;67.10;;;;;;6214179;23;20025;-77
2021/07/22 10:07:27;;;;;;;16.85;9.98;;;23.50;65.10;;;;;;6214303;23;20016;-78
2021/07/22 10:09:58;;;;;;;19.88;12.18;;;23.50;63.10;;;;;;6213556;23;20488;-77
2021/07/22 10:12:25;;;;;;;24.58;14.00;;;23.60;64.30;;;;;;6187764;23;20020;-76
2021/07/22 10:14:57;;;;;;;18.15;12.48;;;23.60;65.10;;;;;;6187788;23;20056;-78
2021/07/22 10:17:35;;;;;;;21.30;13.20;;;23.70;65.90;;;;;;6214167;23;20017;-76
2021/07/22 10:20:06;;;;;;;26.83;16.40;;;23.80;65.80;;;;;;6213963;23;20071;-77
2021/07/22 10:22:35;;;;;;;23.50;14.77;;;23.80;65.40;;;;;;6187193;23;20035;-76
2021/07/22 10:25:07;;;;;;;28.50;15.10;;;23.90;65.60;;;;;;6213560;23;20099;-77
2021/07/22 10:27:36;;;;;;;24.08;13.82;;;23.90;65.70;;;;;;6187669;23;20021;-77
2021/07/22 10:30:07;;;;;;;22.30;13.45;;;24.00;65.90;;;;;;6188238;23;20343;-78
2021/07/22 10:32:38;;;;;;;19.50;13.35;;;24.00;66.10;;;;;;6213357;23;20063;-78
2021/07/22 10:35:06;;;;;;;24.30;14.05;;;24.10;66.30;;;;;;6214103;23;20031;-77
2021/07/22 10:37:33;;;;;;;19.08;13.23;;;24.10;65.50;;;;;;6182218;23;20096;-78
2021/07/22 10:40:09;;;;;;;21.95;14.45;;;24.20;65.30;;;;;;6182103;23;20021;-80
2021/07/22 10:42:50;;;;;;;20.25;13.80;;;24.30;64.70;;;;;;6184119;23;20017;-77
2021/07/22 10:45:20;;;;;;;17.98;12.30;;;24.30;65.20;;;;;;6183683;23;20495;-76
2021/07/22 10:48:08;;;;;;;20.27;13.45;;;24.30;66.40;;;;;;6183764;23;20636;-76
2021/07/22 10:50:47;;;;;;;19.50;13.27;;;24.30;64.80;;;;;;6183277;23;20021;-76
2021/07/22 10:53:15;;;;;;;21.02;13.23;;;24.40;65.10;;;;;;6183870;23;20025;-77
2021/07/22 10:55:46;;;;;;;19.70;12.93;;;24.40;65.40;;;;;;6183661;23;20025;-77
2021/07/22 10:58:36;;;;;;;18.67;13.02;;;24.50;64.20;;;;;;6182726;23;20021;-77
2021/07/22 11:01:07;;;;;;;24.15;13.85;;;24.50;63.60;;;;;;6201045;23;20027;-77
2021/07/22 11:03:35;;;;;;;21.15;12.32;;;24.60;63.90;;;;;;6184538;23;20021;-78
2021/07/22 11:06:12;;;;;;;25.30;13.55;;;24.70;64.00;;;;;;6185532;23;20052;-77
2021/07/22 11:08:44;;;;;;;23.98;13.43;;;24.80;65.00;;;;;;6183655;23;20021;-79
2021/07/22 11:11:13;;;;;;;17.00;11.68;;;24.90;62.50;;;;;;6185367;23;20017;-78
2021/07/22 11:13:46;;;;;;;20.13;13.13;;;24.90;63.60;;;;;;6184577;23;20027;-79
2021/07/22 11:16:23;;;;;;;17.30;11.75;;;24.90;64.40;;;;;;6184436;23;20079;-78
2021/07/22 11:18:51;;;;;;;20.45;12.50;;;25.10;64.70;;;;;;6184270;23;20489;-77
2021/07/22 11:21:25;;;;;;;20.38;12.02;;;25.10;64.90;;;;;;6184157;23;20027;-76
2021/07/22 11:24:00;;;;;;;22.58;12.00;;;25.10;63.00;;;;;;6184781;23;20028;-77
2021/07/22 11:26:38;;;;;;;19.77;12.55;;;25.20;63.80;;;;;;6184126;23;20028;-77
2021/07/22 11:29:14;;;;;;;17.27;11.40;;;25.20;64.20;;;;;;6185432;23;20377;-79
2021/07/22 11:31:43;;;;;;;19.10;10.02;;;25.30;63.40;;;;;;6184786;23;20097;-77
2021/07/22 11:34:12;;;;;;;14.80;10.25;;;25.30;63.30;;;;;;6183508;23;20088;-78
2021/07/22 11:36:39;;;;;;;19.30;11.38;;;25.40;63.00;;;;;;6183561;23;20040;-79
2021/07/22 11:39:07;;;;;;;21.42;11.32;;;25.40;62.50;;;;;;6183573;23;20536;-78
2021/07/22 11:41:34;;;;;;;18.85;11.30;;;25.40;60.40;;;;;;6185843;23;20021;-77
2021/07/22 11:44:03;;;;;;;18.38;10.52;;;25.50;60.90;;;;;;6185319;23;20364;-77
2021/07/22 11:46:41;;;;;;;16.35;10.40;;;25.50;63.50;;;;;;6183727;23;20092;-78
2021/07/22 11:49:11;;;;;;;20.80;11.45;;;25.60;63.20;;;;;;6185285;23;20104;-77
2021/07/22 11:51:39;;;;;;;20.95;12.57;;;25.60;63.70;;;;;;6183645;23;20444;-80
2021/07/22 11:54:06;;;;;;;18.25;12.05;;;25.70;63.10;;;;;;6183898;23;20104;-80
2021/07/22 11:56:36;;;;;;;18.70;11.77;;;25.70;59.70;;;;;;6184026;23;20025;-78
2021/07/22 11:59:06;;;;;;;13.43;9.00;;;25.70;60.20;;;;;;6183867;23;20043;-77
2021/07/22 12:01:45;;;;;;;16.45;10.18;;;25.80;62.10;;;;;;6185414;23;20021;-76
2021/07/22 12:04:21;;;;;;;17.25;10.38;;;25.90;63.20;;;;;;6183788;23;20021;-78
2021/07/22 12:06:50;;;;;;;16.33;11.52;;;25.90;61.40;;;;;;6185198;23;20017;-76
2021/07/22 12:09:18;;;;;;;15.10;11.45;;;25.90;60.80;;;;;;6183911;23;20079;-77
2021/07/22 12:11:50;;;;;;;21.27;11.63;;;25.90;58.90;;;;;;6183279;23;20017;-79
2021/07/22 12:14:31;;;;;;;18.50;10.57;;;25.90;59.30;;;;;;6183290;23;20025;-78
2021/07/22 12:17:10;;;;;;;13.38;9.07;;;25.90;62.10;;;;;;6185361;23;20052;-77
2021/07/22 12:19:39;;;;;;;20.27;9.02;;;26.00;62.40;;;;;;6183624;23;20491;-79
2021/07/22 12:22:34;;;;;;;13.10;8.32;;;26.10;60.50;;;;;;6183134;23;20025;-78
2021/07/22 12:25:15;;;;;;;14.68;9.40;;;26.20;61.60;;;;;;6185064;23;20092;-76
2021/07/22 12:27:47;;;;;;;11.68;8.10;;;26.30;62.70;;;;;;6183840;23;20018;-77
2021/07/22 12:30:21;;;;;;;11.02;7.95;;;26.40;62.10;;;;;;6184629;23;20021;-77
2021/07/22 12:32:57;;;;;;;12.02;8.38;;;26.50;61.20;;;;;;6183051;23;20048;-76
2021/07/22 12:35:32;;;;;;;10.88;7.72;;;26.50;62.50;;;;;;6183373;23;20021;-78
2021/07/22 12:38:04;;;;;;;12.35;7.13;;;26.60;62.10;;;;;;6183075;23;20424;-78